createdAt,value
2018-11-02T00:00:28.567Z,2.10
2018-11-02T00:02:57.026Z,2.13
2018-11-02T00:05:25.481Z,1.83
2018-11-02T00:07:53.960Z,2.33
2018-11-02T00:10:22.437Z,2.40
2018-11-02T00:12:50.869Z,2.33
2018-11-02T00:15:19.289Z,2.00
2018-11-02T00:17:47.759Z,2.20
2018-11-02T00:20:16.248Z,1.90
2018-11-02T00:22:44.772Z,1.90
2018-11-02T00:25:13.197Z,2.17
2018-11-02T00:27:41.614Z,1.70
2018-11-02T00:30:10.085Z,2.10
2018-11-02T00:32:38.549Z,2.03
2018-11-02T00:35:07.738Z,1.97
2018-11-02T00:37:36.270Z,1.87
2018-11-02T00:40:06.373Z,1.87
2018-11-02T00:42:35.037Z,1.60
2018-11-02T00:45:03.669Z,1.83
2018-11-02T00:47:32.088Z,1.90
2018-11-02T00:50:00.497Z,2.20
2018-11-02T00:52:29.040Z,1.90
2018-11-02T00:54:57.472Z,1.93
2018-11-02T00:57:25.898Z,1.80
2018-11-02T00:59:54.325Z,2.20
2018-11-02T01:02:22.720Z,2.00
2018-11-02T01:04:51.154Z,2.17
2018-11-02T01:07:22.389Z,2.07
2018-11-02T01:09:50.997Z,2.10
2018-11-02T01:12:19.458Z,2.30
2018-11-02T01:14:47.964Z,1.67
2018-11-02T01:17:16.348Z,2.50
2018-11-02T01:19:44.817Z,2.50
2018-11-02T01:22:13.316Z,2.43
2018-11-02T01:24:41.768Z,2.67
2018-11-02T01:27:10.252Z,3.40
2018-11-02T01:29:38.687Z,2.90
2018-11-02T01:32:07.173Z,3.50
2018-11-02T01:34:35.583Z,3.37
2018-11-02T01:37:04.701Z,4.00
2018-11-02T01:39:33.157Z,4.23
2018-11-02T01:42:01.641Z,4.60
2018-11-02T01:44:30.154Z,4.20
2018-11-02T01:46:58.593Z,4.17
2018-11-02T01:49:27.597Z,4.33
2018-11-02T01:51:56.084Z,4.47
2018-11-02T01:54:24.504Z,4.20
2018-11-02T01:56:53.317Z,4.80
2018-11-02T01:59:22.484Z,5.00
2018-11-02T02:01:50.901Z,4.80
2018-11-02T02:04:19.323Z,4.17
2018-11-02T02:06:47.852Z,4.83
2018-11-02T02:09:16.298Z,5.67
2018-11-02T02:11:44.763Z,5.10
2018-11-02T02:14:13.873Z,3.80
2018-11-02T02:16:42.332Z,6.43
2018-11-02T02:19:10.845Z,5.83
2018-11-02T02:21:39.292Z,6.57
2018-11-02T02:24:07.725Z,6.10
2018-11-02T02:26:36.282Z,6.83
2018-11-02T02:29:05.286Z,6.60
2018-11-02T02:31:33.733Z,6.70
2018-11-02T02:34:02.406Z,7.17
2018-11-02T02:36:30.834Z,8.10
2018-11-02T02:38:59.269Z,8.60
2018-11-02T02:41:27.703Z,7.90
2018-11-02T02:43:56.144Z,8.77
2018-11-02T02:46:24.580Z,9.40
2018-11-02T02:48:53.012Z,10.00
2018-11-02T02:51:21.459Z,9.23
2018-11-02T02:53:49.909Z,10.00
2018-11-02T02:56:18.321Z,9.27
2018-11-02T02:58:46.837Z,9.10
2018-11-02T03:01:15.230Z,9.40
2018-11-02T03:03:43.722Z,9.43
2018-11-02T03:06:12.129Z,9.57
2018-11-02T03:08:40.540Z,9.87
2018-11-02T03:11:09.101Z,9.70
2018-11-02T03:13:37.431Z,9.33
2018-11-02T03:16:06.161Z,9.73
2018-11-02T03:18:34.708Z,10.00
2018-11-02T03:21:03.061Z,10.00
2018-11-02T03:23:31.473Z,11.30
2018-11-02T03:25:59.954Z,11.40
2018-11-02T03:28:28.381Z,12.93
2018-11-02T03:30:56.830Z,12.73
2018-11-02T03:33:25.276Z,12.70
2018-11-02T03:35:53.712Z,14.00
2018-11-02T03:38:22.176Z,13.63
2018-11-02T03:40:50.685Z,12.43
2018-11-02T03:43:19.112Z,14.20
2018-11-02T03:45:47.666Z,13.83
2018-11-02T03:48:16.156Z,14.10
2018-11-02T03:50:44.592Z,15.07
2018-11-02T03:53:13.742Z,13.70
2018-11-02T03:55:43.549Z,17.43
2018-11-02T03:58:11.973Z,15.23
2018-11-02T04:00:41.045Z,15.60
2018-11-02T04:03:09.474Z,15.50
2018-11-02T04:05:37.916Z,16.90
2018-11-02T04:08:06.666Z,16.40
2018-11-02T04:10:35.137Z,14.97
2018-11-02T04:13:03.569Z,15.60
2018-11-02T04:15:32.076Z,17.10
2018-11-02T04:18:00.553Z,16.47
2018-11-02T04:20:29.487Z,16.17
2018-11-02T04:22:57.932Z,17.50
2018-11-02T04:25:26.373Z,19.10
2018-11-02T04:27:54.761Z,17.83
2018-11-02T04:30:23.195Z,17.70
2018-11-02T04:32:51.575Z,18.00
2018-11-02T04:35:20.576Z,16.00
2018-11-02T04:37:48.997Z,16.23
2018-11-02T04:40:17.640Z,18.30
2018-11-02T04:42:46.108Z,16.47
2018-11-02T04:45:14.568Z,15.97
2018-11-02T04:47:43.105Z,16.50
2018-11-02T04:50:11.538Z,15.73
2018-11-02T04:52:39.953Z,17.63
2018-11-02T04:55:08.396Z,17.40
2018-11-02T04:57:36.822Z,15.10
2018-11-02T05:00:07.245Z,16.97
2018-11-02T05:02:37.566Z,15.83
2018-11-02T05:05:06.426Z,17.80
2018-11-02T05:07:34.880Z,16.40
2018-11-02T05:10:03.388Z,15.60
2018-11-02T05:12:31.856Z,17.73
2018-11-02T05:15:00.281Z,16.80
2018-11-02T05:17:28.711Z,19.00
2018-11-02T05:19:57.582Z,18.90
2018-11-02T05:22:26.019Z,18.77
2018-11-02T05:24:54.490Z,18.93
2018-11-02T05:27:23.369Z,16.23
2018-11-02T05:29:51.795Z,19.70
2018-11-02T05:32:20.721Z,18.63
2018-11-02T05:34:49.160Z,19.13
2018-11-02T05:37:17.629Z,19.77
2018-11-02T05:39:46.162Z,20.27
2018-11-02T05:42:14.700Z,19.87
2018-11-02T05:44:43.124Z,19.83
2018-11-02T05:47:11.598Z,22.43
2018-11-02T05:49:40.005Z,18.97
2018-11-02T05:52:08.499Z,18.23
2018-11-02T05:54:39.436Z,18.70
2018-11-02T05:57:08.250Z,18.97
2018-11-02T05:59:36.697Z,17.63
2018-11-02T06:02:05.430Z,17.40
2018-11-02T06:04:33.988Z,17.13
2018-11-02T06:07:02.417Z,16.93
2018-11-02T06:09:30.829Z,16.13
2018-11-02T06:11:59.216Z,15.30
2018-11-02T06:14:27.679Z,18.07
2018-11-02T06:16:56.157Z,17.37
2018-11-02T06:19:24.571Z,18.13
2018-11-02T06:21:53.041Z,18.43
2018-11-02T06:24:21.514Z,16.70
2018-11-02T06:26:49.893Z,18.00
2018-11-02T06:29:18.312Z,17.90
2018-11-02T06:31:46.716Z,19.53
2018-11-02T06:34:15.126Z,17.70
2018-11-02T06:36:43.604Z,18.67
2018-11-02T06:39:11.973Z,18.57
2018-11-02T06:41:40.568Z,16.40
2018-11-02T06:44:09.108Z,15.87
2018-11-02T06:46:37.537Z,17.07
2018-11-02T06:49:05.957Z,16.23
2018-11-02T06:51:34.475Z,16.30
2018-11-02T06:54:02.874Z,16.40
2018-11-02T06:56:31.341Z,15.40
2018-11-02T06:58:59.959Z,15.30
2018-11-02T07:01:28.365Z,15.53
2018-11-02T07:03:56.805Z,16.57
2018-11-02T07:06:25.343Z,17.07
2018-11-02T07:08:53.769Z,14.73
2018-11-02T07:11:22.277Z,15.57
2018-11-02T07:13:50.820Z,15.70
2018-11-02T07:16:19.324Z,15.00
2018-11-02T07:18:47.733Z,16.50
2018-11-02T07:21:17.077Z,15.47
2018-11-02T07:23:45.563Z,14.20
2018-11-02T07:26:14.390Z,13.80
2018-11-02T07:28:42.810Z,15.90
2018-11-02T07:31:11.213Z,13.33
2018-11-02T07:33:39.974Z,14.37
2018-11-02T07:36:08.424Z,14.70
2018-11-02T07:38:36.884Z,14.03
2018-11-02T07:41:05.774Z,16.33
2018-11-02T07:43:37.322Z,16.60
2018-11-02T07:46:05.741Z,14.07
2018-11-02T07:48:34.166Z,14.63
2018-11-02T07:51:02.810Z,14.57
2018-11-02T07:53:31.616Z,15.50
2018-11-02T07:56:00.027Z,14.43
2018-11-02T07:58:28.483Z,16.83
2018-11-02T08:00:56.878Z,16.33
2018-11-02T08:03:25.530Z,15.47
2018-11-02T08:05:54.059Z,13.53
2018-11-02T08:08:22.484Z,14.67
2018-11-02T08:10:50.929Z,13.20
2018-11-02T08:13:19.317Z,13.10
2018-11-02T08:15:47.796Z,13.80
2018-11-02T08:18:17.238Z,12.40
2018-11-02T08:20:45.716Z,13.33
2018-11-02T08:23:14.197Z,13.70
2018-11-02T08:25:42.697Z,14.27
2018-11-02T08:28:11.065Z,14.23
2018-11-02T08:30:39.445Z,13.80
2018-11-02T08:33:08.710Z,13.90
2018-11-02T08:35:37.109Z,13.90
2018-11-02T08:38:05.483Z,13.60
2018-11-02T08:40:33.865Z,12.60
2018-11-02T08:43:02.332Z,14.00
2018-11-02T08:45:30.704Z,14.43
2018-11-02T08:47:59.048Z,13.17
2018-11-02T08:50:27.456Z,13.17
2018-11-02T08:52:56.766Z,12.20
2018-11-02T08:55:25.173Z,13.20
2018-11-02T08:57:54.239Z,13.30
2018-11-02T09:00:22.630Z,12.07
2018-11-02T09:02:51.831Z,11.87
2018-11-02T09:05:20.221Z,11.67
2018-11-02T09:07:48.633Z,10.43
2018-11-02T09:10:17.016Z,10.40
2018-11-02T09:12:45.436Z,10.97
2018-11-02T09:15:13.852Z,10.67
2018-11-02T09:17:42.264Z,10.47
2018-11-02T09:20:10.684Z,11.87
2018-11-02T09:22:39.720Z,10.33
2018-11-02T09:25:09.182Z,11.20
2018-11-02T09:27:37.693Z,10.30
2018-11-02T09:30:09.711Z,12.07
2018-11-02T09:32:38.128Z,10.77
2018-11-02T09:35:07.726Z,11.47
2018-11-02T09:37:36.952Z,10.40
2018-11-02T09:40:07.171Z,11.47
2018-11-02T09:42:36.649Z,11.77
2018-11-02T09:45:06.156Z,10.20
2018-11-02T09:47:35.234Z,10.10
2018-11-02T09:50:03.756Z,10.07
2018-11-02T09:52:33.485Z,10.30
2018-11-02T09:55:01.896Z,10.37
2018-11-02T09:57:30.375Z,9.27
2018-11-02T09:59:58.785Z,9.70
2018-11-02T10:02:27.236Z,10.17
2018-11-02T10:04:55.657Z,9.07
2018-11-02T10:07:24.112Z,10.17
2018-11-02T10:09:52.533Z,10.00
2018-11-02T10:12:21.038Z,10.33
2018-11-02T10:14:49.488Z,8.30
2018-11-02T10:17:17.934Z,8.80
2018-11-02T10:19:46.485Z,8.70
2018-11-02T10:22:14.908Z,8.57
2018-11-02T10:24:43.340Z,8.30
2018-11-02T10:27:11.796Z,9.53
2018-11-02T10:29:40.281Z,8.20
2018-11-02T10:32:08.790Z,8.53
2018-11-02T10:34:37.275Z,7.80
2018-11-02T10:37:05.944Z,7.07
2018-11-02T10:39:34.476Z,7.10
2018-11-02T10:42:05.460Z,6.80
2018-11-02T10:44:35.965Z,5.80
2018-11-02T10:47:06.020Z,6.70
2018-11-02T10:49:34.849Z,6.70
2018-11-02T10:52:03.140Z,6.70
2018-11-02T10:54:31.601Z,5.40
2018-11-02T10:56:59.993Z,4.97
2018-11-02T10:59:28.432Z,4.67
2018-11-02T11:02:02.894Z,5.10
2018-11-02T11:04:31.345Z,3.90
2018-11-02T11:06:59.752Z,4.50
2018-11-02T11:09:28.177Z,4.43
2018-11-02T11:11:56.752Z,4.33
2018-11-02T11:14:25.088Z,4.40
2018-11-02T11:16:54.013Z,4.33
2018-11-02T11:19:22.526Z,3.87
2018-11-02T11:21:50.970Z,4.60
2018-11-02T11:24:19.408Z,4.53
2018-11-02T11:26:48.466Z,4.63
2018-11-02T11:29:16.917Z,4.60
2018-11-02T11:31:45.345Z,5.40
2018-11-02T11:34:13.843Z,4.90
2018-11-02T11:36:42.292Z,4.83
2018-11-02T11:39:12.956Z,4.83
2018-11-02T11:41:41.439Z,4.17
2018-11-02T11:44:10.275Z,4.50
2018-11-02T11:46:38.770Z,4.20
2018-11-02T11:49:08.541Z,3.90
2018-11-02T11:51:37.784Z,4.23
2018-11-02T11:54:06.249Z,3.60
2018-11-02T11:56:34.673Z,3.80
2018-11-02T11:59:03.081Z,3.17
2018-11-02T12:01:31.536Z,4.00
2018-11-02T12:03:59.956Z,3.30
2018-11-02T12:06:28.429Z,3.57
2018-11-02T12:08:56.873Z,2.93
2018-11-02T12:11:25.340Z,3.40
2018-11-02T12:13:53.806Z,3.00
2018-11-02T12:16:22.218Z,2.97
2018-11-02T12:18:51.100Z,2.60
2018-11-02T12:21:19.530Z,2.67
2018-11-02T12:23:47.976Z,2.67
2018-11-02T12:26:16.449Z,2.80
2018-11-02T12:28:44.873Z,2.40
2018-11-02T12:31:13.280Z,2.87
2018-11-02T12:33:41.829Z,2.63
2018-11-02T12:36:10.437Z,2.70
2018-11-02T12:38:38.853Z,1.97
2018-11-02T12:41:07.320Z,2.77
2018-11-02T12:43:35.839Z,2.83
2018-11-02T12:46:04.159Z,2.20
2018-11-02T12:48:32.729Z,2.53
2018-11-02T12:51:01.171Z,2.40
2018-11-02T12:53:29.597Z,2.30
2018-11-02T12:55:58.034Z,1.90
2018-11-02T12:58:26.603Z,2.10
2018-11-02T13:00:55.815Z,2.30
2018-11-02T13:03:24.219Z,1.90
2018-11-02T13:05:52.617Z,1.53
2018-11-02T13:08:22.134Z,1.70
2018-11-02T13:10:50.601Z,1.93
2018-11-02T13:13:19.026Z,1.80
2018-11-02T13:15:47.543Z,1.70
2018-11-02T13:18:18.662Z,1.30
2018-11-02T13:20:47.456Z,1.83
2018-11-02T13:23:17.090Z,2.50
2018-11-02T13:25:46.264Z,1.23
2018-11-02T13:28:15.592Z,1.63
2018-11-02T13:30:44.058Z,1.70
2018-11-02T13:33:12.407Z,2.43
2018-11-02T13:35:40.829Z,1.97
2018-11-02T13:38:09.253Z,2.03
2018-11-02T13:40:37.693Z,1.97
2018-11-02T13:43:06.457Z,1.80
2018-11-02T13:45:34.828Z,2.07
2018-11-02T13:48:03.236Z,2.00
2018-11-02T13:50:31.776Z,2.17
2018-11-02T13:53:00.133Z,2.00
2018-11-02T13:55:28.536Z,1.50
2018-11-02T13:57:56.944Z,2.03
2018-11-02T14:00:26.419Z,1.73
2018-11-02T14:02:54.873Z,2.07
2018-11-02T14:05:23.261Z,1.97
2018-11-02T14:07:51.717Z,1.57
2018-11-02T14:10:20.134Z,1.53
2018-11-02T14:12:48.650Z,1.80
2018-11-02T14:15:17.409Z,1.77
2018-11-02T14:17:46.313Z,2.57
2018-11-02T14:20:15.324Z,1.70
2018-11-02T14:22:43.846Z,1.67
2018-11-02T14:25:14.402Z,1.60
2018-11-02T14:27:42.864Z,1.80
2018-11-02T14:30:13.125Z,1.60
2018-11-02T14:32:41.545Z,1.33
2018-11-02T14:35:09.956Z,1.63
2018-11-02T14:37:38.965Z,1.60
2018-11-02T14:40:08.777Z,1.87
2018-11-02T14:42:37.638Z,1.50
2018-11-02T14:45:07.705Z,1.70
2018-11-02T14:47:36.124Z,2.43
2018-11-02T14:50:06.253Z,1.33
2018-11-02T14:52:34.692Z,1.90
2018-11-02T14:55:03.155Z,1.97
2018-11-02T14:57:31.585Z,2.13
2018-11-02T15:00:00.104Z,1.80
2018-11-02T15:02:28.458Z,1.97
2018-11-02T15:04:57.292Z,1.50
2018-11-02T15:07:25.729Z,2.03
2018-11-02T15:09:54.195Z,2.00
2018-11-02T15:12:22.670Z,2.77
2018-11-02T15:14:51.068Z,2.73
2018-11-02T15:17:19.454Z,2.50
2018-11-02T15:19:47.848Z,2.63
2018-11-02T15:22:16.303Z,2.67
2018-11-02T15:24:44.713Z,2.70
2018-11-02T15:27:13.184Z,2.53
2018-11-02T15:29:41.645Z,2.77
2018-11-02T15:32:10.203Z,2.60
2018-11-02T15:34:38.683Z,3.00
2018-11-02T15:37:07.057Z,2.70
2018-11-02T15:39:35.559Z,2.97
2018-11-02T15:42:03.964Z,2.90
2018-11-02T15:44:32.426Z,2.63
2018-11-02T15:47:00.793Z,3.83
2018-11-02T15:49:29.217Z,3.50
2018-11-02T15:51:57.589Z,3.33
2018-11-02T15:54:26.266Z,3.10
2018-11-02T15:56:54.720Z,3.30
2018-11-02T15:59:23.113Z,3.40
2018-11-02T16:01:51.684Z,3.60
2018-11-02T16:04:20.111Z,3.77
2018-11-02T16:06:48.598Z,3.90
2018-11-02T16:09:16.994Z,3.60
2018-11-02T16:11:46.354Z,4.20
2018-11-02T16:14:15.228Z,3.53
2018-11-02T16:16:43.629Z,3.90
2018-11-02T16:19:12.260Z,4.37
2018-11-02T16:21:40.713Z,4.40
2018-11-02T16:24:10.153Z,3.70
2018-11-02T16:26:38.612Z,4.60
2018-11-02T16:29:08.033Z,4.50
2018-11-02T16:31:36.647Z,4.57
2018-11-02T16:34:05.374Z,4.37
2018-11-02T16:36:33.757Z,4.80
2018-11-02T16:39:02.246Z,4.50
2018-11-02T16:41:30.657Z,5.20
2018-11-02T16:44:00.042Z,5.47
2018-11-02T16:46:28.368Z,5.23
2018-11-02T16:48:56.789Z,5.30
2018-11-02T16:51:25.225Z,5.07
2018-11-02T16:53:53.654Z,5.43
2018-11-02T16:56:22.060Z,5.97
2018-11-02T16:58:50.529Z,5.70
2018-11-02T17:01:20.104Z,5.60
2018-11-02T17:03:48.720Z,4.70
2018-11-02T17:06:17.117Z,5.77
2018-11-02T17:08:45.524Z,5.10
2018-11-02T17:11:14.028Z,5.20
2018-11-02T17:13:42.432Z,5.33
2018-11-02T17:16:10.867Z,5.73
2018-11-02T17:18:39.258Z,5.73
2018-11-02T17:21:07.719Z,6.20
2018-11-02T17:23:36.190Z,7.00
2018-11-02T17:26:05.262Z,6.17
2018-11-02T17:28:33.661Z,6.43
2018-11-02T17:31:02.135Z,5.53
2018-11-02T17:33:30.652Z,6.90
2018-11-02T17:35:59.153Z,6.70
2018-11-02T17:38:27.556Z,7.23
2018-11-02T17:40:56.012Z,7.17
2018-11-02T17:43:24.446Z,7.73
2018-11-02T17:45:52.860Z,7.20
2018-11-02T17:48:21.286Z,7.93
2018-11-02T17:50:49.687Z,8.20
2018-11-02T17:53:18.152Z,8.00
2018-11-02T17:55:46.536Z,9.43
2018-11-02T17:58:14.982Z,9.90
2018-11-02T18:00:43.537Z,8.80
2018-11-02T18:03:12.737Z,10.10
2018-11-02T18:05:41.178Z,10.90
2018-11-02T18:08:10.497Z,11.80
2018-11-02T18:10:38.938Z,10.93
2018-11-02T18:13:07.355Z,9.73
2018-11-02T18:15:35.745Z,10.43
2018-11-02T18:18:04.216Z,11.40
2018-11-02T18:20:32.717Z,10.73
2018-11-02T18:23:01.209Z,11.93
2018-11-02T18:25:29.622Z,10.93
2018-11-02T18:27:58.061Z,11.20
2018-11-02T18:30:26.501Z,12.07
2018-11-02T18:32:54.921Z,12.57
2018-11-02T18:35:23.368Z,11.80
2018-11-02T18:37:51.942Z,26.37
2018-11-02T18:40:20.396Z,58.47
2018-11-02T18:42:48.848Z,39.53
2018-11-02T18:45:17.249Z,42.97
2018-11-02T18:47:46.989Z,26.73
2018-11-02T18:50:16.745Z,22.77
2018-11-02T18:52:45.951Z,28.00
2018-11-02T18:55:14.524Z,16.13
2018-11-02T18:57:42.943Z,10.90
2018-11-02T19:00:12.213Z,10.97
2018-11-02T19:02:40.992Z,10.13
2018-11-02T19:05:13.145Z,11.10
2018-11-02T19:07:41.682Z,15.63
2018-11-02T19:10:10.939Z,12.00
2018-11-02T19:12:39.933Z,12.90
2018-11-02T19:15:11.188Z,10.40
2018-11-02T19:17:40.608Z,10.03
2018-11-02T19:20:09.691Z,10.73
2018-11-02T19:22:38.688Z,11.80
2018-11-02T19:25:08.689Z,9.73
2018-11-02T19:27:37.564Z,10.03
2018-11-02T19:30:07.705Z,10.07
2018-11-02T19:32:36.231Z,10.27
2018-11-02T19:35:04.859Z,11.13
2018-11-02T19:37:33.117Z,10.10
2018-11-02T19:40:01.563Z,10.00
2018-11-02T19:42:30.075Z,9.90
2018-11-02T19:44:58.690Z,10.87
2018-11-02T19:47:32.376Z,21.83
2018-11-02T19:50:00.841Z,13.07
2018-11-02T19:52:29.295Z,12.17
2018-11-02T19:54:57.727Z,12.63
2018-11-02T19:57:26.197Z,12.10
2018-11-02T19:59:54.602Z,26.27
2018-11-02T20:02:23.069Z,16.57
2018-11-02T20:04:51.528Z,12.80
2018-11-02T20:07:20.002Z,12.73
2018-11-02T20:09:48.407Z,11.03
2018-11-02T20:12:17.021Z,11.00
2018-11-02T20:14:45.517Z,12.60
2018-11-02T20:17:14.010Z,13.10
2018-11-02T20:19:42.487Z,12.57
2018-11-02T20:22:10.900Z,12.30
2018-11-02T20:24:39.317Z,11.10
2018-11-02T20:27:09.623Z,11.87
2018-11-02T20:29:39.105Z,12.57
2018-11-02T20:32:07.584Z,17.23
2018-11-02T20:34:36.889Z,13.00
2018-11-02T20:37:05.568Z,12.90
2018-11-02T20:39:34.178Z,13.10
2018-11-02T20:42:02.698Z,15.60
2018-11-02T20:44:31.102Z,13.60
2018-11-02T20:47:00.292Z,11.40
2018-11-02T20:49:29.473Z,10.00
2018-11-02T20:51:57.918Z,9.63
2018-11-02T20:54:26.340Z,9.40
2018-11-02T20:56:54.845Z,11.00
2018-11-02T20:59:23.436Z,10.60
2018-11-02T21:01:51.988Z,11.07
2018-11-02T21:04:27.842Z,9.20
2018-11-02T21:06:56.898Z,11.00
2018-11-02T21:09:26.419Z,11.03
2018-11-02T21:11:54.673Z,11.77
2018-11-02T21:14:23.206Z,12.80
2018-11-02T21:16:51.558Z,12.83
2018-11-02T21:19:20.034Z,13.90
2018-11-02T21:21:48.512Z,12.20
2018-11-02T21:24:16.941Z,9.97
2018-11-02T21:26:45.883Z,10.27
2018-11-02T21:29:14.425Z,8.27
2018-11-02T21:31:42.886Z,9.30
2018-11-02T21:34:11.365Z,7.93
2018-11-02T21:36:39.764Z,8.20
2018-11-02T21:39:10.505Z,9.40
2018-11-02T21:41:38.998Z,8.50
2018-11-02T21:44:07.480Z,21.73
2018-11-02T21:46:35.932Z,12.33
2018-11-02T21:49:04.556Z,11.70
2018-11-02T21:51:33.002Z,14.90
2018-11-02T21:54:01.524Z,10.33
2018-11-02T21:56:30.100Z,10.47
2018-11-02T21:58:59.021Z,9.87
2018-11-02T22:01:27.460Z,9.00
2018-11-02T22:03:55.892Z,8.43
2018-11-02T22:06:25.017Z,13.37
2018-11-02T22:08:54.900Z,11.93
2018-11-02T22:11:23.421Z,31.33
2018-11-02T22:13:51.804Z,20.33
2018-11-02T22:16:22.203Z,15.57
2018-11-02T22:18:50.609Z,11.30
2018-11-02T22:21:19.107Z,10.33
2018-11-02T22:23:47.581Z,8.37
2018-11-02T22:26:16.028Z,8.63
2018-11-02T22:28:44.669Z,7.77
2018-11-02T22:31:13.174Z,7.70
2018-11-02T22:33:41.630Z,8.90
2018-11-02T22:36:10.070Z,8.00
2018-11-02T22:38:38.501Z,8.40
2018-11-02T22:41:06.996Z,8.40
2018-11-02T22:43:36.309Z,8.63
2018-11-02T22:46:04.935Z,8.10
2018-11-02T22:48:33.949Z,8.53
2018-11-02T22:51:02.511Z,8.97
2018-11-02T22:53:31.038Z,9.70
2018-11-02T22:55:59.600Z,8.67
2018-11-02T22:58:28.148Z,8.90
2018-11-02T23:01:03.780Z,8.07
2018-11-02T23:03:32.257Z,8.20
2018-11-02T23:06:00.748Z,8.40
2018-11-02T23:08:30.051Z,8.23
2018-11-02T23:10:58.470Z,10.70
2018-11-02T23:13:26.918Z,10.00
2018-11-02T23:15:55.377Z,11.23
2018-11-02T23:18:24.435Z,11.33
2018-11-02T23:20:52.837Z,10.20
2018-11-02T23:23:21.417Z,11.47
2018-11-02T23:25:50.555Z,10.93
2018-11-02T23:28:18.964Z,10.63
2018-11-02T23:30:47.393Z,9.43
2018-11-02T23:33:15.851Z,9.80
2018-11-02T23:35:44.261Z,9.77
2018-11-02T23:38:12.676Z,10.40
2018-11-02T23:40:41.130Z,9.00
2018-11-02T23:43:09.563Z,9.60
2018-11-02T23:45:37.964Z,9.77
2018-11-02T23:48:12.611Z,9.40
2018-11-02T23:50:41.028Z,8.00
2018-11-02T23:53:09.565Z,8.30
2018-11-02T23:55:37.968Z,8.67
2018-11-02T23:58:06.451Z,9.10
